createdAt,value
2023-03-17T00:03:04.086Z,2.30
2023-03-17T00:08:14.231Z,2.20
2023-03-17T00:13:17.954Z,3.03
2023-03-17T00:18:23.560Z,2.30
2023-03-17T00:23:27.257Z,2.13
2023-03-17T00:28:30.417Z,2.20
2023-03-17T00:33:37.197Z,2.00
2023-03-17T00:38:40.559Z,2.13
2023-03-17T00:43:44.280Z,1.93
2023-03-17T00:48:52.832Z,2.20
2023-03-17T00:53:56.671Z,3.20
2023-03-17T00:59:00.190Z,2.00
2023-03-17T01:04:04.801Z,2.10
2023-03-17T01:09:08.494Z,2.40
2023-03-17T01:14:12.370Z,2.20
2023-03-17T01:19:16.875Z,2.10
2023-03-17T01:24:20.241Z,2.10
2023-03-17T01:29:23.478Z,2.30
2023-03-17T01:34:29.212Z,2.10
2023-03-17T01:39:33.498Z,2.23
2023-03-17T01:44:37.204Z,2.50
2023-03-17T01:49:43.250Z,2.30
2023-03-17T01:54:51.526Z,2.07
2023-03-17T01:59:57.675Z,2.10
2023-03-17T02:05:06.346Z,2.47
2023-03-17T02:10:11.158Z,2.20
2023-03-17T02:15:14.364Z,2.30
2023-03-17T02:20:54.700Z,1.90
2023-03-17T02:26:00.988Z,2.43
2023-03-17T02:31:04.789Z,2.27
2023-03-17T02:36:09.639Z,2.40
2023-03-17T02:41:14.327Z,2.23
2023-03-17T02:46:18.030Z,2.07
2023-03-17T02:51:21.166Z,2.03
2023-03-17T02:56:25.596Z,2.10
2023-03-17T03:01:31.000Z,2.10
2023-03-17T03:06:34.067Z,2.33
2023-03-17T03:11:39.420Z,2.20
2023-03-17T03:16:43.614Z,2.30
2023-03-17T03:21:47.397Z,2.17
2023-03-17T03:26:52.334Z,2.27
2023-03-17T03:31:55.436Z,2.30
2023-03-17T03:36:59.815Z,2.10
2023-03-17T03:42:05.141Z,2.13
2023-03-17T03:47:08.452Z,2.37
2023-03-17T03:52:13.303Z,2.53
2023-03-17T03:57:18.155Z,2.20
2023-03-17T04:02:23.800Z,2.30
2023-03-17T04:07:26.987Z,2.23
2023-03-17T04:12:31.474Z,1.93
2023-03-17T04:17:34.824Z,1.70
2023-03-17T04:22:37.997Z,1.80
2023-03-17T04:27:42.853Z,2.03
2023-03-17T04:32:46.737Z,1.87
2023-03-17T04:37:52.787Z,2.10
2023-03-17T04:42:57.168Z,2.20
2023-03-17T04:48:00.167Z,2.03
2023-03-17T04:53:03.471Z,2.10
2023-03-17T04:58:09.244Z,2.40
2023-03-17T05:03:26.146Z,2.40
2023-03-17T05:08:30.112Z,3.10
2023-03-17T05:13:34.642Z,3.17
2023-03-17T05:18:38.536Z,2.50
2023-03-17T05:23:41.981Z,2.10
2023-03-17T05:28:46.446Z,2.57
2023-03-17T05:33:52.229Z,2.20
2023-03-17T05:38:55.562Z,2.00
2023-03-17T05:43:59.980Z,2.40
2023-03-17T05:49:03.727Z,2.13
2023-03-17T05:54:07.465Z,2.00
2023-03-17T05:59:14.955Z,1.93
2023-03-17T06:04:21.248Z,2.10
2023-03-17T06:09:24.586Z,1.97
2023-03-17T06:14:29.022Z,2.17
2023-03-17T06:19:32.098Z,2.07
2023-03-17T06:24:35.663Z,2.10
2023-03-17T06:29:40.157Z,2.03
2023-03-17T06:34:43.500Z,2.27
2023-03-17T06:39:50.307Z,2.40
2023-03-17T06:44:54.669Z,2.40
2023-03-17T06:49:58.033Z,2.30
2023-03-17T06:55:01.372Z,3.10
2023-03-17T07:00:07.108Z,2.20
2023-03-17T07:05:10.549Z,2.00
2023-03-17T07:10:15.833Z,2.10
2023-03-17T07:15:20.985Z,2.10
2023-03-17T07:20:24.473Z,2.03
2023-03-17T07:25:28.132Z,2.20
2023-03-17T07:30:32.873Z,2.10
2023-03-17T07:35:35.996Z,2.07
2023-03-17T07:40:39.719Z,2.27
2023-03-17T07:45:44.496Z,2.60
2023-03-17T07:50:47.556Z,2.37
2023-03-17T07:55:53.385Z,2.87
2023-03-17T08:00:58.279Z,2.27
2023-03-17T08:06:03.082Z,2.27
2023-03-17T08:11:08.330Z,2.20
2023-03-17T08:16:12.823Z,2.00
2023-03-17T08:21:16.058Z,2.27
2023-03-17T08:26:19.231Z,2.17
2023-03-17T08:31:24.120Z,2.50
2023-03-17T08:36:27.726Z,2.77
2023-03-17T08:41:31.009Z,3.70
2023-03-17T08:46:36.375Z,3.00
2023-03-17T08:51:40.914Z,2.80
2023-03-17T08:56:44.251Z,2.20
2023-03-17T09:01:48.916Z,2.30
2023-03-17T09:07:02.767Z,2.37
2023-03-17T09:12:09.456Z,2.30
2023-03-17T09:17:15.461Z,2.30
2023-03-17T09:22:20.059Z,2.30
2023-03-17T09:27:23.222Z,2.13
2023-03-17T09:32:27.747Z,2.37
2023-03-17T09:37:31.142Z,2.30
2023-03-17T09:42:44.263Z,2.40
2023-03-17T09:48:09.945Z,2.10
2023-03-17T09:53:19.248Z,2.80
2023-03-17T09:58:32.326Z,2.23
2023-03-17T10:03:37.652Z,2.30
2023-03-17T10:08:51.150Z,2.30
2023-03-17T10:14:01.421Z,2.43
2023-03-17T10:19:15.081Z,2.47
2023-03-17T10:24:20.248Z,3.40
2023-03-17T10:29:25.421Z,2.90
2023-03-17T10:34:32.303Z,2.67
2023-03-17T10:39:45.888Z,2.35
2023-03-17T10:44:53.630Z,2.78
2023-03-17T10:50:02.641Z,2.40
2023-03-17T10:55:07.392Z,2.53
2023-03-17T11:00:20.015Z,2.95
2023-03-17T11:05:26.675Z,2.65
2023-03-17T11:10:30.415Z,3.10
2023-03-17T11:15:36.021Z,3.17
2023-03-17T11:26:19.281Z,2.95
2023-03-17T11:31:32.427Z,3.17
2023-03-17T11:36:56.474Z,2.97
2023-03-17T11:42:11.168Z,2.78
2023-03-17T11:47:29.027Z,2.90
2023-03-17T11:52:40.373Z,3.15
2023-03-17T11:57:50.395Z,3.20
2023-03-17T12:02:59.802Z,3.20
2023-03-17T12:08:07.152Z,2.75
2023-03-17T12:13:16.621Z,3.15
2023-03-17T12:18:25.299Z,3.38
2023-03-17T12:23:38.331Z,3.10
2023-03-17T12:28:47.709Z,3.30
2023-03-17T12:33:59.994Z,3.00
2023-03-17T12:39:09.437Z,3.30
2023-03-17T12:44:27.376Z,2.85
2023-03-17T12:49:58.275Z,3.20
2023-03-17T12:55:04.621Z,3.00
2023-03-17T13:00:24.567Z,3.40
2023-03-17T13:05:34.091Z,3.00
2023-03-17T13:10:40.270Z,3.17
2023-03-17T13:16:00.511Z,3.40
2023-03-17T13:21:13.832Z,2.92
2023-03-17T13:26:21.136Z,3.22
2023-03-17T13:31:36.791Z,3.13
2023-03-17T13:36:48.008Z,2.95
2023-03-17T13:42:18.143Z,3.10
2023-03-17T13:47:35.879Z,3.22
2023-03-17T13:52:52.393Z,3.45
2023-03-17T13:58:16.309Z,3.70
2023-03-17T14:03:24.914Z,4.93
2023-03-17T14:08:32.305Z,3.47
2023-03-17T14:13:49.980Z,3.40
2023-03-17T14:19:00.780Z,3.42
2023-03-17T14:24:21.749Z,3.30
2023-03-17T14:29:31.974Z,3.70
2023-03-17T14:34:43.956Z,3.13
2023-03-17T14:39:50.863Z,3.28
2023-03-17T14:45:02.443Z,3.17
2023-03-17T14:50:17.144Z,3.10
2023-03-17T14:55:20.872Z,3.05
2023-03-17T15:00:37.154Z,2.78
2023-03-17T15:05:43.499Z,3.00
2023-03-17T15:10:49.731Z,2.95
2023-03-17T15:15:53.162Z,2.97
2023-03-17T15:21:00.780Z,3.15
2023-03-17T15:26:09.970Z,3.20
2023-03-17T15:31:14.821Z,3.50
2023-03-17T15:36:32.176Z,3.63
2023-03-17T15:41:36.117Z,3.58
2023-03-17T15:46:39.364Z,3.17
2023-03-17T15:51:43.804Z,3.17
2023-03-17T15:56:46.894Z,3.55
2023-03-17T16:01:52.941Z,3.40
2023-03-17T16:06:57.514Z,3.72
2023-03-17T16:12:00.861Z,3.50
2023-03-17T16:17:04.285Z,3.83
2023-03-17T16:22:25.178Z,3.75
2023-03-17T16:27:28.386Z,3.88
2023-03-17T16:32:31.577Z,3.75
2023-03-17T16:37:36.147Z,3.63
2023-03-17T16:42:44.352Z,3.97
2023-03-17T16:47:47.542Z,3.67
2023-03-17T16:52:52.469Z,4.00
2023-03-17T16:57:58.197Z,4.28
2023-03-17T17:03:01.462Z,3.78
2023-03-17T17:08:06.418Z,3.90
2023-03-17T17:13:11.621Z,4.55
2023-03-17T17:18:18.647Z,5.00
2023-03-17T17:23:25.364Z,4.68
2023-03-17T17:28:28.518Z,5.30
2023-03-17T17:33:31.636Z,5.55
2023-03-17T17:38:36.092Z,5.15
2023-03-17T17:43:39.725Z,4.20
2023-03-17T17:48:43.152Z,3.97
2023-03-17T17:53:47.679Z,4.10
2023-03-17T17:58:51.664Z,4.57
2023-03-17T18:03:54.742Z,4.65
2023-03-17T18:09:00.294Z,3.87
2023-03-17T18:14:03.384Z,3.23
2023-03-17T18:19:08.534Z,2.87
2023-03-17T18:24:13.493Z,2.70
2023-03-17T18:29:16.677Z,3.70
2023-03-17T18:34:22.670Z,2.73
2023-03-17T18:39:27.690Z,2.57
2023-03-17T18:44:30.872Z,3.50
2023-03-17T18:49:34.317Z,3.10
2023-03-17T18:54:39.869Z,4.00
2023-03-17T18:59:43.419Z,4.57
2023-03-17T19:04:47.999Z,4.60
2023-03-17T19:09:53.829Z,4.83
2023-03-17T19:14:57.590Z,5.33
2023-03-17T19:20:01.159Z,6.30
2023-03-17T19:25:06.384Z,5.43
2023-03-17T19:30:10.757Z,4.80
2023-03-17T19:35:13.986Z,4.70
2023-03-17T19:40:18.699Z,4.30
2023-03-17T19:45:30.949Z,4.10
2023-03-17T19:50:34.202Z,4.47
2023-03-17T19:55:39.111Z,4.73
2023-03-17T20:00:43.482Z,6.20
2023-03-17T20:05:47.065Z,5.50
2023-03-17T20:10:55.352Z,6.30
2023-03-17T20:15:58.448Z,6.13
2023-03-17T20:21:05.915Z,6.03
2023-03-17T20:26:10.839Z,5.60
2023-03-17T20:31:14.941Z,5.50
2023-03-17T20:36:18.271Z,5.00
2023-03-17T20:41:22.992Z,5.03
2023-03-17T20:46:27.280Z,4.60
2023-03-17T20:51:31.144Z,5.20
2023-03-17T20:56:37.494Z,5.90
2023-03-17T21:01:42.126Z,5.37
2023-03-17T21:06:45.339Z,5.40
2023-03-17T21:11:52.777Z,5.60
2023-03-17T21:16:56.316Z,4.73
2023-03-17T21:22:00.089Z,4.83
2023-03-17T21:27:07.702Z,4.57
2023-03-17T21:32:11.010Z,5.00
2023-03-17T21:37:14.152Z,5.60
2023-03-17T21:42:18.735Z,4.97
2023-03-17T21:47:21.894Z,5.30
2023-03-17T21:52:25.362Z,5.27
2023-03-17T21:57:30.934Z,5.83
2023-03-17T22:02:34.614Z,5.43
2023-03-17T22:07:41.095Z,5.50
2023-03-17T22:12:47.777Z,6.00
2023-03-17T22:17:51.669Z,5.63
2023-03-17T22:22:54.823Z,5.80
2023-03-17T22:27:59.568Z,5.60
2023-03-17T22:33:02.682Z,6.57
2023-03-17T22:38:06.972Z,6.90
2023-03-17T22:43:12.489Z,6.03
2023-03-17T22:48:15.577Z,6.73
2023-03-17T22:53:18.812Z,6.67
2023-03-17T22:58:23.416Z,6.27
2023-03-17T23:03:27.510Z,6.20
2023-03-17T23:08:32.228Z,7.43
2023-03-17T23:13:36.666Z,7.73
2023-03-17T23:18:40.088Z,6.97
2023-03-17T23:23:43.258Z,6.60
2023-03-17T23:28:48.049Z,7.37
2023-03-17T23:33:51.926Z,6.97
2023-03-17T23:38:55.129Z,7.40
2023-03-17T23:44:00.260Z,7.07
2023-03-17T23:49:07.394Z,11.50
2023-03-17T23:54:10.741Z,7.87
2023-03-17T23:59:15.369Z,8.17
